createdAt,value
2022-12-04T00:01:21.337Z,13.23
2022-12-04T00:03:49.681Z,12.43
2022-12-04T00:06:19.270Z,13.80
2022-12-04T00:08:48.680Z,13.60
2022-12-04T00:11:18.503Z,12.93
2022-12-04T00:13:47.116Z,12.27
2022-12-04T00:16:18.986Z,12.83
2022-12-04T00:18:46.759Z,12.57
2022-12-04T00:21:16.108Z,12.17
2022-12-04T00:23:44.575Z,13.80
2022-12-04T00:26:14.193Z,13.00
2022-12-04T00:28:42.542Z,12.57
2022-12-04T00:31:13.067Z,12.97
2022-12-04T00:33:42.628Z,12.33
2022-12-04T00:36:12.582Z,13.20
2022-12-04T00:38:41.395Z,12.60
2022-12-04T00:41:09.730Z,12.53
2022-12-04T00:43:37.371Z,13.70
2022-12-04T00:46:05.188Z,14.10
2022-12-04T00:48:32.899Z,13.30
2022-12-04T00:51:04.481Z,13.27
2022-12-04T00:53:32.216Z,12.80
2022-12-04T00:56:00.059Z,12.90
2022-12-04T00:58:27.718Z,14.50
2022-12-04T01:01:03.405Z,13.63
2022-12-04T01:03:31.566Z,13.13
2022-12-04T01:05:59.625Z,13.50
2022-12-04T01:08:28.875Z,12.87
2022-12-04T01:10:56.748Z,13.17
2022-12-04T01:13:25.300Z,12.70
2022-12-04T01:15:53.552Z,13.20
2022-12-04T01:18:21.329Z,12.97
2022-12-04T01:20:50.691Z,13.17
2022-12-04T01:23:19.204Z,13.00
2022-12-04T01:25:56.009Z,12.93
2022-12-04T01:28:24.743Z,13.33
2022-12-04T01:31:03.246Z,13.20
2022-12-04T01:33:31.926Z,12.80
2022-12-04T01:36:01.270Z,11.77
2022-12-04T01:38:29.671Z,13.20
2022-12-04T01:40:59.770Z,13.73
2022-12-04T01:43:29.782Z,13.53
2022-12-04T01:45:58.460Z,13.53
2022-12-04T01:48:30.762Z,13.73
2022-12-04T01:51:06.312Z,14.20
2022-12-04T01:53:36.450Z,14.20
2022-12-04T01:56:06.465Z,14.50
2022-12-04T01:58:38.877Z,14.27
2022-12-04T02:01:09.467Z,12.93
2022-12-04T02:03:38.942Z,12.87
2022-12-04T02:06:08.033Z,13.73
2022-12-04T02:08:37.139Z,14.17
2022-12-04T02:11:18.805Z,14.33
2022-12-04T02:13:58.177Z,14.40
2022-12-04T02:16:32.073Z,12.93
2022-12-04T02:19:08.797Z,12.83
2022-12-04T02:21:39.137Z,13.40
2022-12-04T02:24:46.839Z,14.00
2022-12-04T02:27:32.962Z,13.87
2022-12-04T02:30:05.324Z,13.37
2022-12-04T02:32:41.075Z,12.87
2022-12-04T02:35:15.896Z,13.00
2022-12-04T02:37:46.795Z,13.53
2022-12-04T02:40:22.114Z,14.17
2022-12-04T02:42:56.206Z,12.83
2022-12-04T02:45:31.268Z,12.07
2022-12-04T02:48:02.023Z,12.17
2022-12-04T02:50:33.430Z,13.07
2022-12-04T02:53:07.592Z,13.40
2022-12-04T02:55:39.116Z,14.03
2022-12-04T02:58:11.650Z,13.90
2022-12-04T03:00:44.844Z,12.70
2022-12-04T03:03:19.683Z,12.57
2022-12-04T03:05:55.048Z,13.47
2022-12-04T03:08:27.298Z,12.83
2022-12-04T03:10:58.881Z,13.53
2022-12-04T03:13:32.114Z,13.93
2022-12-04T03:16:05.882Z,14.40
2022-12-04T03:18:37.303Z,13.63
2022-12-04T03:21:10.892Z,14.23
2022-12-04T03:23:43.722Z,14.90
2022-12-04T03:26:16.668Z,14.57
2022-12-04T03:28:52.053Z,14.00
2022-12-04T03:31:30.559Z,14.03
2022-12-04T03:34:02.506Z,13.90
2022-12-04T03:36:35.851Z,14.70
2022-12-04T03:39:09.880Z,13.90
2022-12-04T03:41:54.865Z,14.63
2022-12-04T03:44:27.636Z,15.00
2022-12-04T03:47:04.517Z,14.30
2022-12-04T03:49:38.158Z,13.33
2022-12-04T03:52:11.877Z,14.00
2022-12-04T03:54:45.224Z,14.33
2022-12-04T03:57:17.712Z,15.30
2022-12-04T03:59:55.477Z,14.93
2022-12-04T04:02:29.863Z,14.70
2022-12-04T04:05:01.072Z,14.10
2022-12-04T04:07:35.891Z,13.67
2022-12-04T04:10:09.084Z,14.03
2022-12-04T04:12:42.021Z,14.43
2022-12-04T04:15:30.465Z,14.73
2022-12-04T04:18:19.546Z,14.60
2022-12-04T04:21:08.749Z,13.60
2022-12-04T04:23:59.818Z,14.43
2022-12-04T04:26:34.158Z,13.50
2022-12-04T04:29:02.163Z,13.97
2022-12-04T04:31:37.542Z,14.73
2022-12-04T04:34:19.403Z,14.47
2022-12-04T04:36:55.249Z,14.93
2022-12-04T04:39:31.093Z,15.17
2022-12-04T04:42:04.247Z,14.90
2022-12-04T04:44:42.142Z,14.63
2022-12-04T04:47:17.734Z,16.43
2022-12-04T04:49:50.867Z,15.30
2022-12-04T04:52:22.074Z,16.43
2022-12-04T04:54:49.856Z,15.00
2022-12-04T04:57:27.574Z,14.50
2022-12-04T04:59:55.739Z,15.20
2022-12-04T05:02:25.549Z,15.93
2022-12-04T05:04:55.645Z,16.13
2022-12-04T05:07:23.362Z,15.80
2022-12-04T05:09:51.192Z,16.17
2022-12-04T05:12:18.920Z,15.63
2022-12-04T05:14:48.221Z,15.97
2022-12-04T05:17:16.315Z,16.30
2022-12-04T05:19:56.565Z,15.20
2022-12-04T05:22:27.846Z,14.77
2022-12-04T05:24:56.302Z,15.83
2022-12-04T05:27:25.717Z,15.67
2022-12-04T05:29:54.501Z,16.63
2022-12-04T05:32:23.495Z,15.13
2022-12-04T05:34:51.974Z,16.10
2022-12-04T05:37:20.373Z,15.87
2022-12-04T05:39:49.542Z,13.93
2022-12-04T05:42:17.244Z,15.87
2022-12-04T05:44:45.077Z,15.27
2022-12-04T05:47:12.964Z,14.27
2022-12-04T05:49:40.896Z,15.13
2022-12-04T05:52:08.782Z,14.47
2022-12-04T05:54:36.669Z,15.37
2022-12-04T05:57:05.849Z,14.37
2022-12-04T05:59:34.110Z,14.10
2022-12-04T06:02:01.847Z,14.23
2022-12-04T06:04:31.431Z,14.23
2022-12-04T06:06:59.078Z,15.20
2022-12-04T06:09:26.766Z,14.63
2022-12-04T06:11:59.023Z,14.47
2022-12-04T06:14:28.141Z,13.53
2022-12-04T06:16:55.861Z,12.63
2022-12-04T06:19:24.790Z,13.80
2022-12-04T06:21:54.336Z,14.30
2022-12-04T06:24:24.794Z,14.63
2022-12-04T06:27:27.356Z,13.33
2022-12-04T06:29:46.057Z,13.63
2022-12-04T06:32:17.932Z,13.87
2022-12-04T06:34:51.400Z,13.23
2022-12-04T06:37:19.326Z,13.30
2022-12-04T06:39:47.298Z,13.07
2022-12-04T06:42:14.966Z,12.90
2022-12-04T06:44:42.709Z,13.73
2022-12-04T06:47:12.053Z,13.83
2022-12-04T06:49:39.965Z,13.53
2022-12-04T06:52:07.880Z,13.30
2022-12-04T06:54:35.680Z,13.07
2022-12-04T06:57:03.546Z,13.07
2022-12-04T06:59:32.541Z,13.33
2022-12-04T07:02:00.251Z,13.00
2022-12-04T07:04:29.370Z,13.30
2022-12-04T07:06:57.571Z,13.35
2022-12-04T07:09:25.300Z,13.17
2022-12-04T07:11:55.092Z,12.87
2022-12-04T07:14:23.003Z,11.67
2022-12-04T07:16:50.825Z,11.93
2022-12-04T07:19:18.730Z,12.93
2022-12-04T07:21:47.720Z,12.33
2022-12-04T07:24:17.599Z,12.63
2022-12-04T07:26:45.413Z,11.83
2022-12-04T07:29:13.392Z,11.77
2022-12-04T07:31:41.179Z,11.87
2022-12-04T07:34:08.990Z,12.10
2022-12-04T07:36:36.795Z,12.13
2022-12-04T07:39:05.856Z,12.40
2022-12-04T07:41:33.563Z,12.00
2022-12-04T07:44:07.207Z,13.97
2022-12-04T07:46:35.134Z,14.03
2022-12-04T07:49:03.342Z,14.33
2022-12-04T07:51:31.034Z,15.10
2022-12-04T07:54:03.713Z,14.67
2022-12-04T07:56:33.666Z,16.10
2022-12-04T07:59:01.703Z,15.87
2022-12-04T08:01:29.921Z,16.27
2022-12-04T08:03:59.352Z,16.87
2022-12-04T08:06:30.517Z,17.03
2022-12-04T08:08:58.511Z,16.97
2022-12-04T08:11:28.300Z,16.67
2022-12-04T08:13:58.806Z,15.17
2022-12-04T08:16:28.470Z,16.50
2022-12-04T08:18:57.141Z,16.53
2022-12-04T08:21:26.351Z,17.13
2022-12-04T08:23:56.361Z,17.07
2022-12-04T08:26:27.022Z,16.70
2022-12-04T08:28:55.858Z,17.00
2022-12-04T08:31:27.206Z,17.13
2022-12-04T08:33:56.906Z,16.23
2022-12-04T08:36:24.941Z,16.23
2022-12-04T08:38:53.370Z,16.13
2022-12-04T08:41:24.144Z,15.63
2022-12-04T08:43:55.046Z,16.73
2022-12-04T08:46:23.928Z,15.73
2022-12-04T08:48:53.270Z,16.10
2022-12-04T08:51:22.952Z,17.60
2022-12-04T08:53:54.715Z,17.10
2022-12-04T08:56:22.969Z,16.17
2022-12-04T08:58:50.773Z,16.00
2022-12-04T09:01:18.884Z,16.23
2022-12-04T09:03:46.553Z,17.70
2022-12-04T09:06:16.671Z,17.20
2022-12-04T09:08:44.387Z,17.30
2022-12-04T09:11:13.767Z,17.23
2022-12-04T09:13:42.368Z,17.93
2022-12-04T09:16:13.877Z,16.53
2022-12-04T09:18:42.465Z,15.33
2022-12-04T09:21:12.320Z,16.13
2022-12-04T09:23:42.199Z,16.50
2022-12-04T09:26:19.453Z,17.23
2022-12-04T09:28:47.339Z,16.20
2022-12-04T09:31:15.154Z,16.60
2022-12-04T09:33:42.978Z,16.40
2022-12-04T09:36:15.974Z,16.43
2022-12-04T09:38:46.275Z,15.90
2022-12-04T09:41:35.070Z,15.87
2022-12-04T09:44:07.420Z,16.30
2022-12-04T09:46:39.460Z,17.27
2022-12-04T09:49:12.772Z,15.63
2022-12-04T09:51:43.035Z,15.60
2022-12-04T09:54:17.383Z,15.93
2022-12-04T09:56:48.535Z,15.87
2022-12-04T09:59:22.093Z,16.67
2022-12-04T10:01:53.200Z,16.17
2022-12-04T10:04:20.992Z,15.87
2022-12-04T10:06:57.921Z,16.73
2022-12-04T10:09:33.265Z,16.73
2022-12-04T10:12:14.136Z,16.50
2022-12-04T10:14:59.450Z,17.23
2022-12-04T10:17:41.359Z,18.03
2022-12-04T10:20:24.379Z,19.03
2022-12-04T10:23:08.189Z,18.13
2022-12-04T10:25:42.791Z,18.77
2022-12-04T10:28:21.718Z,18.67
2022-12-04T10:30:51.304Z,19.00
2022-12-04T10:33:23.787Z,17.10
2022-12-04T10:35:53.987Z,16.23
2022-12-04T10:38:33.167Z,16.00
2022-12-04T10:41:14.570Z,17.20
2022-12-04T10:43:45.615Z,16.43
2022-12-04T10:46:16.229Z,17.37
2022-12-04T10:48:46.337Z,17.60
2022-12-04T10:51:16.900Z,18.00
2022-12-04T10:53:46.359Z,17.20
2022-12-04T10:56:18.035Z,16.40
2022-12-04T10:58:56.633Z,16.60
2022-12-04T11:01:24.703Z,16.07
2022-12-04T11:04:00.177Z,18.40
2022-12-04T11:06:28.656Z,15.53
2022-12-04T11:08:57.490Z,17.40
2022-12-04T11:11:29.030Z,17.17
2022-12-04T11:14:08.442Z,16.63
2022-12-04T11:16:39.900Z,17.73
2022-12-04T11:19:22.206Z,17.37
2022-12-04T11:21:51.166Z,18.07
2022-12-04T11:24:24.134Z,16.90
2022-12-04T11:26:53.529Z,18.00
2022-12-04T11:29:25.894Z,17.57
2022-12-04T11:31:58.583Z,17.63
2022-12-04T11:34:36.337Z,16.97
2022-12-04T11:37:05.763Z,16.17
2022-12-04T11:39:38.409Z,16.60
2022-12-04T11:42:18.260Z,17.47
2022-12-04T11:44:52.931Z,16.50
2022-12-04T11:47:22.342Z,16.90
2022-12-04T11:50:01.722Z,17.47
2022-12-04T11:52:44.205Z,17.40
2022-12-04T11:55:17.148Z,17.40
2022-12-04T11:57:57.245Z,17.63
2022-12-04T12:00:27.673Z,17.67
2022-12-04T12:03:11.231Z,17.13
2022-12-04T12:06:03.084Z,17.67
2022-12-04T12:08:46.076Z,18.53
2022-12-04T12:11:23.563Z,16.70
2022-12-04T12:14:03.860Z,18.30
2022-12-04T12:16:40.958Z,18.27
2022-12-04T12:19:28.015Z,17.53
2022-12-04T12:22:05.565Z,17.83
2022-12-04T12:24:44.557Z,18.17
2022-12-04T12:27:38.681Z,18.00
2022-12-04T12:30:16.657Z,19.27
2022-12-04T12:33:06.193Z,19.77
2022-12-04T12:35:40.454Z,19.80
2022-12-04T12:38:12.923Z,18.37
2022-12-04T12:40:44.877Z,20.00
2022-12-04T12:43:17.492Z,19.87
2022-12-04T12:45:52.965Z,18.07
2022-12-04T12:48:30.030Z,17.67
2022-12-04T12:51:28.352Z,19.73
2022-12-04T12:53:56.128Z,19.30
2022-12-04T12:56:36.070Z,21.67
2022-12-04T12:59:07.460Z,20.83
2022-12-04T13:01:50.415Z,23.00
2022-12-04T13:04:26.420Z,22.50
2022-12-04T13:07:05.765Z,22.43
2022-12-04T13:09:37.182Z,19.83
2022-12-04T13:12:12.844Z,21.20
2022-12-04T13:14:44.682Z,21.03
2022-12-04T13:17:22.347Z,21.07
2022-12-04T13:19:54.077Z,20.70
2022-12-04T13:22:31.414Z,19.37
2022-12-04T13:25:20.998Z,20.03
2022-12-04T13:28:03.466Z,21.00
2022-12-04T13:30:44.496Z,20.93
2022-12-04T13:33:40.853Z,19.13
2022-12-04T13:36:31.352Z,20.88
2022-12-04T13:39:27.050Z,21.67
2022-12-04T13:42:00.361Z,20.13
2022-12-04T13:44:30.067Z,20.93
2022-12-04T13:47:00.594Z,21.70
2022-12-04T13:49:32.371Z,22.23
2022-12-04T13:52:06.169Z,20.30
2022-12-04T13:54:36.377Z,21.17
2022-12-04T13:57:22.914Z,21.77
2022-12-04T14:00:04.347Z,21.83
2022-12-04T14:02:53.342Z,23.67
2022-12-04T14:05:31.923Z,23.33
2022-12-04T14:08:07.570Z,21.93
2022-12-04T14:10:40.260Z,25.23
2022-12-04T14:13:19.278Z,22.33
2022-12-04T14:15:48.697Z,22.23
2022-12-04T14:18:28.543Z,23.17
2022-12-04T14:21:02.203Z,21.60
2022-12-04T14:23:37.313Z,21.27
2022-12-04T14:26:06.220Z,22.20
2022-12-04T14:28:45.833Z,21.47
2022-12-04T14:31:37.153Z,23.10
2022-12-04T14:34:22.637Z,21.33
2022-12-04T14:36:55.864Z,23.97
2022-12-04T14:39:28.602Z,23.00
2022-12-04T14:42:08.577Z,21.87
2022-12-04T14:44:42.879Z,22.07
2022-12-04T14:47:23.362Z,23.57
2022-12-04T14:50:04.343Z,22.43
2022-12-04T14:52:39.287Z,23.37
2022-12-04T14:55:20.199Z,21.10
2022-12-04T14:57:54.428Z,22.13
2022-12-04T15:00:24.873Z,21.50
2022-12-04T15:02:56.065Z,21.17
2022-12-04T15:05:29.668Z,22.67
2022-12-04T15:08:02.662Z,22.27
2022-12-04T15:10:50.155Z,21.30
2022-12-04T15:13:27.075Z,21.43
2022-12-04T15:15:55.787Z,21.33
2022-12-04T15:18:24.662Z,21.93
2022-12-04T15:21:00.354Z,21.93
2022-12-04T15:23:35.879Z,21.90
2022-12-04T15:26:09.093Z,21.63
2022-12-04T15:28:44.101Z,21.57
2022-12-04T15:31:17.424Z,21.23
2022-12-04T15:33:48.437Z,21.17
2022-12-04T15:36:21.217Z,20.17
2022-12-04T15:38:54.714Z,20.13
2022-12-04T15:41:34.574Z,23.00
2022-12-04T15:44:03.428Z,21.03
2022-12-04T15:46:34.595Z,20.33
2022-12-04T15:49:10.311Z,21.47
2022-12-04T15:51:38.726Z,21.23
2022-12-04T15:54:18.793Z,21.50
2022-12-04T15:56:57.776Z,21.37
2022-12-04T15:59:29.276Z,21.53
2022-12-04T16:02:02.299Z,21.30
2022-12-04T16:04:36.593Z,20.60
2022-12-04T16:07:20.151Z,22.70
2022-12-04T16:10:02.839Z,23.67
2022-12-04T16:12:33.966Z,23.90
2022-12-04T16:15:02.505Z,21.13
2022-12-04T16:17:32.779Z,21.63
2022-12-04T16:20:02.078Z,20.93
2022-12-04T16:22:31.589Z,20.43
2022-12-04T16:25:01.487Z,22.10
2022-12-04T16:27:29.779Z,20.30
2022-12-04T16:29:58.463Z,20.70
2022-12-04T16:32:32.010Z,20.10
2022-12-04T16:35:00.818Z,20.70
2022-12-04T16:37:30.258Z,19.83
2022-12-04T16:40:00.492Z,20.20
2022-12-04T16:42:30.655Z,19.60
2022-12-04T16:45:00.159Z,20.67
2022-12-04T16:47:29.392Z,20.60
2022-12-04T16:49:58.232Z,21.07
2022-12-04T16:52:26.826Z,22.77
2022-12-04T16:54:57.525Z,22.83
2022-12-04T16:57:29.278Z,23.37
2022-12-04T16:59:58.087Z,25.00
2022-12-04T17:02:28.717Z,26.83
2022-12-04T17:04:58.098Z,28.83
2022-12-04T17:07:26.809Z,23.20
2022-12-04T17:09:55.092Z,20.50
2022-12-04T17:12:23.668Z,22.90
2022-12-04T17:14:53.470Z,21.50
2022-12-04T17:17:22.111Z,23.47
2022-12-04T17:19:50.392Z,21.33
2022-12-04T17:22:26.303Z,21.87
2022-12-04T17:24:56.365Z,21.43
2022-12-04T17:27:26.021Z,21.80
2022-12-04T17:29:56.169Z,21.47
2022-12-04T17:32:24.842Z,22.60
2022-12-04T17:34:55.105Z,22.00
2022-12-04T17:37:24.710Z,24.90
2022-12-04T17:39:53.068Z,24.90
2022-12-04T17:42:22.304Z,24.03
2022-12-04T17:44:51.126Z,23.70
2022-12-04T17:47:25.826Z,24.80
2022-12-04T17:49:54.976Z,23.30
2022-12-04T17:52:24.364Z,22.87
2022-12-04T17:54:53.885Z,23.63
2022-12-04T17:57:24.033Z,25.63
2022-12-04T17:59:55.393Z,24.43
2022-12-04T18:02:30.138Z,24.67
2022-12-04T18:05:01.658Z,24.40
2022-12-04T18:07:32.067Z,25.00
2022-12-04T18:10:02.651Z,23.87
2022-12-04T18:12:32.190Z,24.90
2022-12-04T18:15:01.245Z,22.93
2022-12-04T18:17:30.861Z,23.33
2022-12-04T18:20:04.272Z,24.43
2022-12-04T18:22:37.342Z,23.53
2022-12-04T18:25:07.429Z,21.97
2022-12-04T18:27:40.343Z,25.80
2022-12-04T18:30:10.427Z,25.43
2022-12-04T18:32:39.552Z,29.37
2022-12-04T18:35:07.786Z,26.83
2022-12-04T18:37:35.505Z,27.67
2022-12-04T18:40:06.914Z,30.23
2022-12-04T18:42:34.972Z,23.00
2022-12-04T18:45:03.335Z,22.63
2022-12-04T18:47:31.061Z,27.73
2022-12-04T18:50:00.482Z,25.37
2022-12-04T18:52:28.587Z,27.43
2022-12-04T18:54:56.341Z,26.57
2022-12-04T18:57:24.203Z,24.53
2022-12-04T18:59:51.953Z,29.43
2022-12-04T19:02:19.702Z,30.03
2022-12-04T19:04:47.864Z,30.47
2022-12-04T19:07:18.592Z,33.73
2022-12-04T19:12:34.247Z,26.17
2022-12-04T19:15:01.953Z,29.17
2022-12-04T19:17:29.638Z,27.93
2022-12-04T19:19:57.802Z,27.10
2022-12-04T19:22:27.791Z,28.03
2022-12-04T19:24:55.643Z,33.27
2022-12-04T19:27:23.422Z,31.70
2022-12-04T19:29:51.270Z,26.53
2022-12-04T19:32:19.189Z,26.77
2022-12-04T19:34:49.317Z,27.80
2022-12-04T19:37:17.772Z,24.10
2022-12-04T19:39:48.394Z,24.70
2022-12-04T19:42:16.145Z,25.13
2022-12-04T19:44:48.699Z,28.63
2022-12-04T19:47:17.175Z,26.60
2022-12-04T19:49:44.978Z,23.77
2022-12-04T19:52:12.987Z,27.70
2022-12-04T19:54:40.835Z,26.77
2022-12-04T19:57:09.913Z,27.70
2022-12-04T19:59:43.068Z,24.77
2022-12-04T20:02:14.695Z,25.57
2022-12-04T20:04:43.166Z,24.30
2022-12-04T20:07:11.041Z,22.97
2022-12-04T20:09:38.917Z,22.70
2022-12-04T20:12:07.289Z,22.13
2022-12-04T20:14:36.497Z,22.87
2022-12-04T20:17:05.134Z,22.30
2022-12-04T20:19:33.459Z,21.80
2022-12-04T20:22:01.696Z,21.20
2022-12-04T20:24:29.509Z,23.40
2022-12-04T20:26:57.725Z,23.63
2022-12-04T20:29:25.441Z,23.13
2022-12-04T20:31:54.614Z,22.03
2022-12-04T20:34:22.526Z,23.43
2022-12-04T20:36:50.629Z,22.63
2022-12-04T20:39:20.797Z,23.40
2022-12-04T20:41:49.056Z,22.13
2022-12-04T20:44:19.055Z,20.47
2022-12-04T20:46:47.357Z,22.67
2022-12-04T20:49:21.943Z,24.13
2022-12-04T20:51:51.973Z,24.30
2022-12-04T20:54:21.659Z,24.20
2022-12-04T20:56:52.079Z,23.90
2022-12-04T20:59:21.978Z,23.20
2022-12-04T21:01:50.485Z,23.63
2022-12-04T21:04:20.069Z,23.20
2022-12-04T21:06:48.346Z,23.97
2022-12-04T21:09:18.757Z,21.97
2022-12-04T21:11:48.962Z,23.27
2022-12-04T21:14:36.778Z,24.03
2022-12-04T21:17:06.703Z,22.27
2022-12-04T21:19:36.248Z,23.57
2022-12-04T21:22:04.215Z,23.07
2022-12-04T21:24:37.930Z,22.97
2022-12-04T21:27:05.767Z,22.93
2022-12-04T21:29:34.100Z,22.10
2022-12-04T21:32:02.178Z,22.77
2022-12-04T21:34:30.002Z,21.87
2022-12-04T21:36:59.563Z,23.40
2022-12-04T21:39:27.435Z,23.70
2022-12-04T21:42:12.658Z,21.40
2022-12-04T21:44:40.583Z,21.33
2022-12-04T21:47:08.335Z,21.33
2022-12-04T21:49:36.161Z,21.67
2022-12-04T21:52:05.421Z,21.77
2022-12-04T21:54:33.274Z,22.13
2022-12-04T21:57:01.283Z,22.93
2022-12-04T21:59:29.113Z,24.03
2022-12-04T22:01:57.267Z,23.97
2022-12-04T22:04:25.265Z,23.23
2022-12-04T22:06:53.124Z,24.23
2022-12-04T22:09:22.242Z,23.60
2022-12-04T22:11:49.913Z,22.87
2022-12-04T22:14:17.662Z,22.33
2022-12-04T22:16:45.556Z,22.70
2022-12-04T22:19:14.277Z,23.10
2022-12-04T22:21:41.975Z,21.40
2022-12-04T22:24:10.715Z,21.37
2022-12-04T22:26:40.182Z,21.23
2022-12-04T22:29:34.075Z,22.10
2022-12-04T22:31:56.221Z,21.50
2022-12-04T22:34:24.086Z,22.73
2022-12-04T22:36:51.809Z,21.77
2022-12-04T22:39:19.486Z,21.97
2022-12-04T22:41:48.649Z,22.27
2022-12-04T22:44:16.382Z,21.83
2022-12-04T22:46:44.113Z,22.03
2022-12-04T22:49:11.929Z,21.87
2022-12-04T22:51:39.686Z,22.30
2022-12-04T22:54:08.084Z,22.07
2022-12-04T22:56:35.896Z,22.40
2022-12-04T22:59:05.282Z,21.20
2022-12-04T23:01:34.674Z,21.33
2022-12-04T23:04:04.380Z,20.97
2022-12-04T23:06:33.729Z,21.50
2022-12-04T23:09:03.565Z,22.07
2022-12-04T23:11:31.289Z,20.80
2022-12-04T23:14:01.116Z,20.60
2022-12-04T23:16:31.361Z,21.00
2022-12-04T23:18:59.137Z,21.03
2022-12-04T23:21:28.653Z,20.53
2022-12-04T23:23:57.505Z,22.27
2022-12-04T23:26:27.779Z,21.10
2022-12-04T23:28:56.304Z,20.43
2022-12-04T23:31:24.470Z,20.90
2022-12-04T23:33:53.784Z,21.23
2022-12-04T23:36:22.551Z,20.57
2022-12-04T23:38:50.379Z,22.07
2022-12-04T23:41:20.188Z,20.17
2022-12-04T23:43:49.240Z,21.20
2022-12-04T23:46:20.508Z,21.43
2022-12-04T23:48:48.340Z,21.90
2022-12-04T23:51:19.329Z,20.87
2022-12-04T23:53:48.004Z,20.40
2022-12-04T23:56:18.812Z,20.73
2022-12-04T23:58:48.675Z,20.17
